sensor_id;sensor_type;location;lat;lon;timestamp;pressure;altitude;pressure_sealevel;temperature;humidity
21300;BME280;10809;49.476;11.016;2022-07-23T00:01:44;98128.50;;;25.83;39.90
21300;BME280;10809;49.476;11.016;2022-07-23T00:04:17;98136.63;;;25.83;40.10
21300;BME280;10809;49.476;11.016;2022-07-23T00:06:47;98133.75;;;25.84;41.24
21300;BME280;10809;49.476;11.016;2022-07-23T00:09:18;98142.06;;;25.83;41.36
21300;BME280;10809;49.476;11.016;2022-07-23T00:11:48;98147.50;;;25.83;42.12
21300;BME280;10809;49.476;11.016;2022-07-23T00:14:18;98139.53;;;25.81;41.68
21300;BME280;10809;49.476;11.016;2022-07-23T00:16:49;98137.69;;;25.82;41.99
21300;BME280;10809;49.476;11.016;2022-07-23T00:19:19;98132.44;;;25.80;42.42
21300;BME280;10809;49.476;11.016;2022-07-23T00:21:49;98129.91;;;25.79;42.77
21300;BME280;10809;49.476;11.016;2022-07-23T00:24:20;98128.19;;;25.78;42.54
21300;BME280;10809;49.476;11.016;2022-07-23T00:26:50;98129.25;;;25.77;42.81
21300;BME280;10809;49.476;11.016;2022-07-23T00:29:21;98124.00;;;25.75;42.72
21300;BME280;10809;49.476;11.016;2022-07-23T00:31:51;98127.72;;;25.74;43.14
21300;BME280;10809;49.476;11.016;2022-07-23T00:34:21;98123.50;;;25.72;43.05
21300;BME280;10809;49.476;11.016;2022-07-23T00:36:52;98127.25;;;25.71;43.28
21300;BME280;10809;49.476;11.016;2022-07-23T00:39:24;98123.03;;;25.68;43.76
21300;BME280;10809;49.476;11.016;2022-07-23T00:42:01;98110.03;;;25.64;43.03
21300;BME280;10809;49.476;11.016;2022-07-23T00:44:31;98119.19;;;25.63;43.81
21300;BME280;10809;49.476;11.016;2022-07-23T00:47:02;98120.59;;;25.59;43.73
21300;BME280;10809;49.476;11.016;2022-07-23T00:49:32;98104.69;;;25.56;43.69
21300;BME280;10809;49.476;11.016;2022-07-23T00:52:03;98109.47;;;25.54;44.23
21300;BME280;10809;49.476;11.016;2022-07-23T00:54:33;98108.16;;;25.50;44.49
21300;BME280;10809;49.476;11.016;2022-07-23T00:57:10;98109.34;;;25.47;43.90
21300;BME280;10809;49.476;11.016;2022-07-23T00:59:41;98113.25;;;25.45;44.58
21300;BME280;10809;49.476;11.016;2022-07-23T01:02:12;98109.84;;;25.43;44.83
21300;BME280;10809;49.476;11.016;2022-07-23T01:04:42;98110.22;;;25.40;44.75
21300;BME280;10809;49.476;11.016;2022-07-23T01:07:13;98109.78;;;25.36;45.21
21300;BME280;10809;49.476;11.016;2022-07-23T01:09:44;98096.56;;;25.33;45.22
21300;BME280;10809;49.476;11.016;2022-07-23T01:12:15;98096.94;;;25.30;45.16
21300;BME280;10809;49.476;11.016;2022-07-23T01:14:59;98099.34;;;25.25;44.57
21300;BME280;10809;49.476;11.016;2022-07-23T01:17:32;98105.97;;;25.23;44.99
21300;BME280;10809;49.476;11.016;2022-07-23T01:20:03;98103.63;;;25.20;44.70
21300;BME280;10809;49.476;11.016;2022-07-23T01:22:34;98105.00;;;25.16;44.77
21300;BME280;10809;49.476;11.016;2022-07-23T01:25:05;98098.91;;;25.14;44.94
21300;BME280;10809;49.476;11.016;2022-07-23T01:27:36;98111.84;;;25.12;45.09
21300;BME280;10809;49.476;11.016;2022-07-23T01:30:14;98111.16;;;25.10;44.89
21300;BME280;10809;49.476;11.016;2022-07-23T01:32:45;98107.78;;;25.08;44.96
21300;BME280;10809;49.476;11.016;2022-07-23T01:35:15;98106.09;;;25.07;44.69
21300;BME280;10809;49.476;11.016;2022-07-23T01:37:49;98100.88;;;25.05;44.69
21300;BME280;10809;49.476;11.016;2022-07-23T01:40:21;98110.84;;;25.05;45.13
21300;BME280;10809;49.476;11.016;2022-07-23T01:42:52;98115.44;;;25.04;45.02
21300;BME280;10809;49.476;11.016;2022-07-23T01:45:23;98121.88;;;25.03;45.22
21300;BME280;10809;49.476;11.016;2022-07-23T01:47:55;98131.22;;;25.01;45.30
21300;BME280;10809;49.476;11.016;2022-07-23T01:50:26;98127.84;;;24.99;45.11
21300;BME280;10809;49.476;11.016;2022-07-23T01:53:15;98130.91;;;24.96;45.46
21300;BME280;10809;49.476;11.016;2022-07-23T01:55:45;98143.81;;;24.94;44.95
21300;BME280;10809;49.476;11.016;2022-07-23T01:58:16;98142.28;;;24.91;44.99
21300;BME280;10809;49.476;11.016;2022-07-23T02:00:46;98133.69;;;24.88;44.75
21300;BME280;10809;49.476;11.016;2022-07-23T02:03:17;98145.66;;;24.85;45.05
21300;BME280;10809;49.476;11.016;2022-07-23T02:05:59;98133.69;;;24.79;44.90
21300;BME280;10809;49.476;11.016;2022-07-23T02:08:32;98134.72;;;24.78;45.57
21300;BME280;10809;49.476;11.016;2022-07-23T02:11:05;98131.34;;;24.76;45.57
21300;BME280;10809;49.476;11.016;2022-07-23T02:13:37;98141.50;;;24.74;45.61
21300;BME280;10809;49.476;11.016;2022-07-23T02:16:07;98140.00;;;24.72;45.63
21300;BME280;10809;49.476;11.016;2022-07-23T02:18:37;98130.34;;;24.69;45.57
21300;BME280;10809;49.476;11.016;2022-07-23T02:21:08;98127.81;;;24.68;45.94
21300;BME280;10809;49.476;11.016;2022-07-23T02:23:42;98110.94;;;24.66;45.71
21300;BME280;10809;49.476;11.016;2022-07-23T02:26:13;98110.06;;;24.65;46.17
21300;BME280;10809;49.476;11.016;2022-07-23T02:28:44;98107.38;;;24.65;46.16
21300;BME280;10809;49.476;11.016;2022-07-23T02:31:18;98102.97;;;24.64;45.92
21300;BME280;10809;49.476;11.016;2022-07-23T02:33:49;98102.81;;;24.66;46.05
21300;BME280;10809;49.476;11.016;2022-07-23T02:36:21;98101.28;;;24.63;46.19
21300;BME280;10809;49.476;11.016;2022-07-23T02:38:52;98114.00;;;24.63;46.53
21300;BME280;10809;49.476;11.016;2022-07-23T02:41:22;98110.44;;;24.62;46.27
21300;BME280;10809;49.476;11.016;2022-07-23T02:43:53;98098.94;;;24.60;46.04
21300;BME280;10809;49.476;11.016;2022-07-23T02:46:23;98112.63;;;24.59;46.54
21300;BME280;10809;49.476;11.016;2022-07-23T02:48:54;98112.81;;;24.57;46.08
21300;BME280;10809;49.476;11.016;2022-07-23T02:51:24;98102.16;;;24.56;46.09
21300;BME280;10809;49.476;11.016;2022-07-23T02:54:00;98097.97;;;24.53;46.52
21300;BME280;10809;49.476;11.016;2022-07-23T02:56:30;98089.16;;;24.51;46.33
21300;BME280;10809;49.476;11.016;2022-07-23T02:59:01;98088.69;;;24.48;46.61
21300;BME280;10809;49.476;11.016;2022-07-23T03:01:32;98092.59;;;24.45;46.86
21300;BME280;10809;49.476;11.016;2022-07-23T03:04:09;98103.59;;;24.44;46.45
21300;BME280;10809;49.476;11.016;2022-07-23T03:06:46;98100.41;;;24.40;46.73
21300;BME280;10809;49.476;11.016;2022-07-23T03:09:20;98100.59;;;24.39;46.77
21300;BME280;10809;49.476;11.016;2022-07-23T03:11:50;98095.34;;;24.37;47.18
21300;BME280;10809;49.476;11.016;2022-07-23T03:14:23;98100.09;;;24.35;46.80
21300;BME280;10809;49.476;11.016;2022-07-23T03:16:57;98098.59;;;24.33;47.06
21300;BME280;10809;49.476;11.016;2022-07-23T03:19:29;98111.44;;;24.31;47.30
21300;BME280;10809;49.476;11.016;2022-07-23T03:22:03;98114.31;;;24.29;47.02
21300;BME280;10809;49.476;11.016;2022-07-23T03:24:34;98111.13;;;24.26;47.10
21300;BME280;10809;49.476;11.016;2022-07-23T03:27:29;98110.63;;;24.22;46.82
21300;BME280;10809;49.476;11.016;2022-07-23T03:30:00;98114.50;;;24.20;46.90
21300;BME280;10809;49.476;11.016;2022-07-23T03:32:30;98109.44;;;24.17;47.09
21300;BME280;10809;49.476;11.016;2022-07-23T03:35:01;98106.22;;;24.13;46.99
21300;BME280;10809;49.476;11.016;2022-07-23T03:37:32;98110.13;;;24.11;47.25
21300;BME280;10809;49.476;11.016;2022-07-23T03:40:04;98108.63;;;24.08;46.87
21300;BME280;10809;49.476;11.016;2022-07-23T03:42:34;98105.25;;;24.06;46.97
21300;BME280;10809;49.476;11.016;2022-07-23T03:45:07;98109.00;;;24.05;46.79
21300;BME280;10809;49.476;11.016;2022-07-23T03:47:38;98106.47;;;24.04;46.96
21300;BME280;10809;49.476;11.016;2022-07-23T03:50:09;98102.22;;;24.01;46.76
21300;BME280;10809;49.476;11.016;2022-07-23T03:52:40;98105.94;;;24.00;47.01
21300;BME280;10809;49.476;11.016;2022-07-23T03:55:10;98111.72;;;23.97;47.03
21300;BME280;10809;49.476;11.016;2022-07-23T03:57:41;98121.69;;;23.97;47.08
21300;BME280;10809;49.476;11.016;2022-07-23T04:00:12;98116.44;;;23.95;47.16
21300;BME280;10809;49.476;11.016;2022-07-23T04:02:47;98120.16;;;23.94;47.29
21300;BME280;10809;49.476;11.016;2022-07-23T04:05:17;98127.59;;;23.92;47.01
21300;BME280;10809;49.476;11.016;2022-07-23T04:07:53;98125.25;;;23.89;46.92
21300;BME280;10809;49.476;11.016;2022-07-23T04:10:24;98124.59;;;23.87;47.32
21300;BME280;10809;49.476;11.016;2022-07-23T04:12:57;98123.06;;;23.85;47.05
21300;BME280;10809;49.476;11.016;2022-07-23T04:15:28;98127.47;;;23.86;47.15
21300;BME280;10809;49.476;11.016;2022-07-23T04:17:58;98132.22;;;23.84;47.07
21300;BME280;10809;49.476;11.016;2022-07-23T04:20:36;98138.81;;;23.81;47.11
21300;BME280;10809;49.476;11.016;2022-07-23T04:23:07;98139.00;;;23.80;47.18
21300;BME280;10809;49.476;11.016;2022-07-23T04:25:39;98143.53;;;23.79;46.98
21300;BME280;10809;49.476;11.016;2022-07-23T04:28:10;98146.25;;;23.79;47.10
21300;BME280;10809;49.476;11.016;2022-07-23T04:30:40;98148.94;;;23.79;47.24
21300;BME280;10809;49.476;11.016;2022-07-23T04:33:12;98153.34;;;23.80;46.99
21300;BME280;10809;49.476;11.016;2022-07-23T04:35:44;98142.50;;;23.80;47.13
21300;BME280;10809;49.476;11.016;2022-07-23T04:38:22;98154.00;;;23.82;47.06
21300;BME280;10809;49.476;11.016;2022-07-23T04:40:55;98159.41;;;23.82;47.09
21300;BME280;10809;49.476;11.016;2022-07-23T04:43:25;98158.41;;;23.83;47.10
21300;BME280;10809;49.476;11.016;2022-07-23T04:45:57;98153.84;;;23.84;46.96
21300;BME280;10809;49.476;11.016;2022-07-23T04:48:29;98158.06;;;23.86;47.19
21300;BME280;10809;49.476;11.016;2022-07-23T04:51:11;98154.34;;;23.87;46.96
21300;BME280;10809;49.476;11.016;2022-07-23T04:53:41;98150.63;;;23.88;47.31
21300;BME280;10809;49.476;11.016;2022-07-23T04:56:12;98152.28;;;23.89;46.99
21300;BME280;10809;49.476;11.016;2022-07-23T04:58:43;98155.69;;;23.91;46.82
21300;BME280;10809;49.476;11.016;2022-07-23T05:01:13;98141.13;;;23.92;47.03
21300;BME280;10809;49.476;11.016;2022-07-23T05:03:47;98141.97;;;23.93;46.74
21300;BME280;10809;49.476;11.016;2022-07-23T05:06:22;98139.28;;;23.93;46.99
21300;BME280;10809;49.476;11.016;2022-07-23T05:08:52;98137.44;;;23.93;46.39
21300;BME280;10809;49.476;11.016;2022-07-23T05:11:26;98142.84;;;23.93;46.72
21300;BME280;10809;49.476;11.016;2022-07-23T05:13:56;98155.34;;;23.94;46.87
21300;BME280;10809;49.476;11.016;2022-07-23T05:16:27;98162.44;;;23.95;46.76
21300;BME280;10809;49.476;11.016;2022-07-23T05:19:03;98158.72;;;23.96;46.82
21300;BME280;10809;49.476;11.016;2022-07-23T05:21:36;98171.22;;;23.97;46.62
21300;BME280;10809;49.476;11.016;2022-07-23T05:24:07;98172.72;;;24.00;46.47
21300;BME280;10809;49.476;11.016;2022-07-23T05:26:38;98164.59;;;24.00;46.42
21300;BME280;10809;49.476;11.016;2022-07-23T05:29:08;98173.59;;;24.00;46.62
21300;BME280;10809;49.476;11.016;2022-07-23T05:31:39;98159.88;;;24.02;46.88
21300;BME280;10809;49.476;11.016;2022-07-23T05:34:10;98169.69;;;24.03;46.47
21300;BME280;10809;49.476;11.016;2022-07-23T05:36:41;98174.91;;;24.04;46.43
21300;BME280;10809;49.476;11.016;2022-07-23T05:39:12;98160.38;;;24.05;46.07
21300;BME280;10809;49.476;11.016;2022-07-23T05:41:45;98157.50;;;24.07;46.22
21300;BME280;10809;49.476;11.016;2022-07-23T05:44:16;98168.34;;;24.07;46.28
21300;BME280;10809;49.476;11.016;2022-07-23T05:46:48;98177.97;;;24.09;46.33
21300;BME280;10809;49.476;11.016;2022-07-23T05:49:23;98185.56;;;24.14;46.44
21300;BME280;10809;49.476;11.016;2022-07-23T05:51:54;98183.34;;;24.17;46.17
21300;BME280;10809;49.476;11.016;2022-07-23T05:54:35;98187.22;;;24.23;46.39
21300;BME280;10809;49.476;11.016;2022-07-23T05:57:05;98188.59;;;24.27;45.68
21300;BME280;10809;49.476;11.016;2022-07-23T05:59:36;98194.31;;;24.32;45.71
21300;BME280;10809;49.476;11.016;2022-07-23T06:02:06;98198.38;;;24.36;45.73
21300;BME280;10809;49.476;11.016;2022-07-23T06:04:37;98205.31;;;24.38;45.50
21300;BME280;10809;49.476;11.016;2022-07-23T06:07:26;98207.50;;;24.43;45.36
21300;BME280;10809;49.476;11.016;2022-07-23T06:09:56;98217.13;;;24.45;45.45
21300;BME280;10809;49.476;11.016;2022-07-23T06:12:27;98217.81;;;24.47;45.79
21300;BME280;10809;49.476;11.016;2022-07-23T06:15:01;98217.44;;;24.50;45.82
21300;BME280;10809;49.476;11.016;2022-07-23T06:17:32;98211.69;;;24.53;45.62
21300;BME280;10809;49.476;11.016;2022-07-23T06:20:07;98217.78;;;24.55;45.60
21300;BME280;10809;49.476;11.016;2022-07-23T06:22:40;98210.97;;;24.59;45.92
21300;BME280;10809;49.476;11.016;2022-07-23T06:25:11;98216.91;;;24.63;45.85
21300;BME280;10809;49.476;11.016;2022-07-23T06:27:41;98215.34;;;24.68;45.61
21300;BME280;10809;49.476;11.016;2022-07-23T06:30:12;98218.19;;;24.75;45.61
21300;BME280;10809;49.476;11.016;2022-07-23T06:32:43;98222.38;;;24.86;45.50
21300;BME280;10809;49.476;11.016;2022-07-23T06:35:14;98217.44;;;24.97;45.58
21300;BME280;10809;49.476;11.016;2022-07-23T06:37:45;98215.81;;;25.11;45.14
21300;BME280;10809;49.476;11.016;2022-07-23T06:40:15;98230.31;;;25.26;45.40
21300;BME280;10809;49.476;11.016;2022-07-23T06:42:46;98242.25;;;25.39;44.88
21300;BME280;10809;49.476;11.016;2022-07-23T06:45:21;98237.09;;;25.52;44.69
21300;BME280;10809;49.476;11.016;2022-07-23T06:47:52;98239.84;;;25.67;45.45
21300;BME280;10809;49.476;11.016;2022-07-23T06:50:26;98240.97;;;25.80;44.82
21300;BME280;10809;49.476;11.016;2022-07-23T06:52:56;98234.88;;;25.93;44.35
21300;BME280;10809;49.476;11.016;2022-07-23T06:55:30;98228.34;;;26.02;44.29
21300;BME280;10809;49.476;11.016;2022-07-23T06:58:01;98236.66;;;26.08;43.95
21300;BME280;10809;49.476;11.016;2022-07-23T07:00:32;98234.41;;;26.12;43.90
21300;BME280;10809;49.476;11.016;2022-07-23T07:03:02;98237.78;;;26.14;43.38
21300;BME280;10809;49.476;11.016;2022-07-23T07:05:33;98246.94;;;26.13;43.38
21300;BME280;10809;49.476;11.016;2022-07-23T07:08:03;98241.88;;;26.10;43.63
21300;BME280;10809;49.476;11.016;2022-07-23T07:10:40;98243.31;;;26.06;43.07
21300;BME280;10809;49.476;11.016;2022-07-23T07:13:10;98245.50;;;26.02;42.89
21300;BME280;10809;49.476;11.016;2022-07-23T07:15:43;98251.66;;;25.96;42.94
21300;BME280;10809;49.476;11.016;2022-07-23T07:18:17;98254.06;;;25.91;43.19
21300;BME280;10809;49.476;11.016;2022-07-23T07:20:48;98263.78;;;25.86;43.46
21300;BME280;10809;49.476;11.016;2022-07-23T07:23:19;98268.72;;;25.82;43.72
21300;BME280;10809;49.476;11.016;2022-07-23T07:25:50;98276.41;;;25.79;43.21
21300;BME280;10809;49.476;11.016;2022-07-23T07:28:20;98270.50;;;25.75;43.36
21300;BME280;10809;49.476;11.016;2022-07-23T07:31:00;98278.16;;;25.72;43.51
21300;BME280;10809;49.476;11.016;2022-07-23T07:33:30;98290.03;;;25.71;42.92
21300;BME280;10809;49.476;11.016;2022-07-23T07:36:01;98289.53;;;25.67;43.49
21300;BME280;10809;49.476;11.016;2022-07-23T07:38:31;98298.72;;;25.66;43.38
21300;BME280;10809;49.476;11.016;2022-07-23T07:41:01;98309.91;;;25.63;43.11
21300;BME280;10809;49.476;11.016;2022-07-23T07:43:32;98315.72;;;25.60;42.97
21300;BME280;10809;49.476;11.016;2022-07-23T07:46:03;98319.97;;;25.55;42.96
21300;BME280;10809;49.476;11.016;2022-07-23T07:48:37;98324.25;;;25.49;43.35
21300;BME280;10809;49.476;11.016;2022-07-23T07:51:07;98321.19;;;25.44;43.23
21300;BME280;10809;49.476;11.016;2022-07-23T07:53:38;98330.22;;;25.37;44.08
21300;BME280;10809;49.476;11.016;2022-07-23T07:56:08;98337.53;;;25.28;44.84
21300;BME280;10809;49.476;11.016;2022-07-23T07:58:38;98329.97;;;25.16;45.69
21300;BME280;10809;49.476;11.016;2022-07-23T08:01:09;98336.97;;;25.02;46.16
21300;BME280;10809;49.476;11.016;2022-07-23T08:03:39;98345.81;;;24.88;46.66
21300;BME280;10809;49.476;11.016;2022-07-23T08:09:26;98343.31;;;24.62;46.40
21300;BME280;10809;49.476;11.016;2022-07-23T08:11:56;98343.16;;;24.56;47.89
21300;BME280;10809;49.476;11.016;2022-07-23T08:14:27;98349.09;;;24.51;48.18
21300;BME280;10809;49.476;11.016;2022-07-23T08:16:57;98336.06;;;24.47;48.32
21300;BME280;10809;49.476;11.016;2022-07-23T08:19:31;98325.59;;;24.44;47.81
21300;BME280;10809;49.476;11.016;2022-07-23T08:22:02;98328.28;;;24.44;47.38
21300;BME280;10809;49.476;11.016;2022-07-23T08:24:32;98320.34;;;24.42;48.12
21300;BME280;10809;49.476;11.016;2022-07-23T08:27:03;98317.63;;;24.42;48.02
21300;BME280;10809;49.476;11.016;2022-07-23T08:29:33;98326.78;;;24.41;47.20
21300;BME280;10809;49.476;11.016;2022-07-23T08:32:04;98324.94;;;24.42;47.34
21300;BME280;10809;49.476;11.016;2022-07-23T08:34:34;98338.66;;;24.40;46.95
21300;BME280;10809;49.476;11.016;2022-07-23T08:37:05;98349.81;;;24.37;46.97
21300;BME280;10809;49.476;11.016;2022-07-23T08:39:35;98363.00;;;24.32;46.53
21300;BME280;10809;49.476;11.016;2022-07-23T08:42:09;98360.97;;;24.26;46.73
21300;BME280;10809;49.476;11.016;2022-07-23T08:44:44;98380.75;;;24.19;46.45
21300;BME280;10809;49.476;11.016;2022-07-23T08:47:18;98385.97;;;24.12;47.30
21300;BME280;10809;49.476;11.016;2022-07-23T08:49:48;98386.66;;;24.06;47.30
21300;BME280;10809;49.476;11.016;2022-07-23T08:52:18;98384.78;;;23.99;47.89
21300;BME280;10809;49.476;11.016;2022-07-23T08:54:49;98391.72;;;23.93;47.92
21300;BME280;10809;49.476;11.016;2022-07-23T08:57:20;98399.63;;;23.87;48.19
21300;BME280;10809;49.476;11.016;2022-07-23T08:59:50;98393.88;;;23.82;48.26
21300;BME280;10809;49.476;11.016;2022-07-23T09:02:20;98395.38;;;23.76;48.67
21300;BME280;10809;49.476;11.016;2022-07-23T09:04:51;98397.75;;;23.71;48.78
21300;BME280;10809;49.476;11.016;2022-07-23T09:07:21;98419.88;;;23.67;48.62
21300;BME280;10809;49.476;11.016;2022-07-23T09:10:05;98423.03;;;23.62;48.67
21300;BME280;10809;49.476;11.016;2022-07-23T09:13:00;98428.94;;;23.58;48.50
21300;BME280;10809;49.476;11.016;2022-07-23T09:15:31;98427.56;;;23.54;49.39
21300;BME280;10809;49.476;11.016;2022-07-23T09:29:17;98439.84;;;23.40;48.99
21300;BME280;10809;49.476;11.016;2022-07-23T09:31:50;98448.78;;;23.41;49.80
21300;BME280;10809;49.476;11.016;2022-07-23T09:34:35;98445.59;;;23.37;49.64
21300;BME280;10809;49.476;11.016;2022-07-23T09:37:11;98427.00;;;23.34;50.32
21300;BME280;10809;49.476;11.016;2022-07-23T09:39:46;98436.25;;;23.32;50.49
21300;BME280;10809;49.476;11.016;2022-07-23T09:42:24;98434.03;;;23.27;50.52
21300;BME280;10809;49.476;11.016;2022-07-23T09:44:57;98439.09;;;23.22;51.12
21300;BME280;10809;49.476;11.016;2022-07-23T09:47:30;98434.16;;;23.17;51.09
21300;BME280;10809;49.476;11.016;2022-07-23T09:52:44;98437.00;;;23.08;51.94
21300;BME280;10809;49.476;11.016;2022-07-23T09:55:18;98441.00;;;23.04;52.82
21300;BME280;10809;49.476;11.016;2022-07-23T09:57:48;98435.91;;;23.01;52.57
21300;BME280;10809;49.476;11.016;2022-07-23T10:00:26;98445.31;;;22.97;52.73
21300;BME280;10809;49.476;11.016;2022-07-23T10:02:57;98444.94;;;22.92;52.59
21300;BME280;10809;49.476;11.016;2022-07-23T10:05:34;98438.34;;;22.86;52.92
21300;BME280;10809;49.476;11.016;2022-07-23T10:08:25;98443.34;;;22.81;52.97
21300;BME280;10809;49.476;11.016;2022-07-23T10:11:14;98441.13;;;22.77;53.13
21300;BME280;10809;49.476;11.016;2022-07-23T10:13:59;98455.97;;;22.73;53.68
21300;BME280;10809;49.476;11.016;2022-07-23T10:16:43;98446.50;;;22.69;52.81
21300;BME280;10809;49.476;11.016;2022-07-23T10:19:14;98435.31;;;22.64;53.39
21300;BME280;10809;49.476;11.016;2022-07-23T10:21:51;98432.94;;;22.61;53.37
21300;BME280;10809;49.476;11.016;2022-07-23T10:24:50;98413.50;;;22.57;53.97
21300;BME280;10809;49.476;11.016;2022-07-23T10:33:30;98402.16;;;22.54;54.20
21300;BME280;10809;49.476;11.016;2022-07-23T10:41:33;98423.28;;;22.58;55.32
21300;BME280;10809;49.476;11.016;2022-07-23T10:44:18;98423.81;;;22.62;55.48
21300;BME280;10809;49.476;11.016;2022-07-23T10:47:01;98426.53;;;22.62;55.21
21300;BME280;10809;49.476;11.016;2022-07-23T10:50:17;98420.81;;;22.65;55.02
21300;BME280;10809;49.476;11.016;2022-07-23T10:55:51;98416.25;;;22.65;55.67
21300;BME280;10809;49.476;11.016;2022-07-23T10:58:45;98417.25;;;22.64;55.93
21300;BME280;10809;49.476;11.016;2022-07-23T11:04:49;98423.66;;;22.63;55.13
21300;BME280;10809;49.476;11.016;2022-07-23T11:07:22;98428.19;;;22.63;56.00
21300;BME280;10809;49.476;11.016;2022-07-23T11:09:53;98434.63;;;22.62;56.19
21300;BME280;10809;49.476;11.016;2022-07-23T11:15:08;98432.94;;;22.61;55.70
21300;BME280;10809;49.476;11.016;2022-07-23T11:20:32;98423.97;;;22.60;55.57
21300;BME280;10809;49.476;11.016;2022-07-23T11:23:03;98434.63;;;22.62;56.51
21300;BME280;10809;49.476;11.016;2022-07-23T11:25:35;98427.38;;;22.62;55.65
21300;BME280;10809;49.476;11.016;2022-07-23T11:28:11;98419.13;;;22.64;55.51
21300;BME280;10809;49.476;11.016;2022-07-23T11:30:45;98416.25;;;22.65;56.23
21300;BME280;10809;49.476;11.016;2022-07-23T11:33:17;98407.84;;;22.68;56.46
21300;BME280;10809;49.476;11.016;2022-07-23T11:36:02;98406.66;;;22.71;55.77
21300;BME280;10809;49.476;11.016;2022-07-23T11:38:37;98393.53;;;22.76;55.99
21300;BME280;10809;49.476;11.016;2022-07-23T11:41:08;98397.63;;;22.80;56.67
21300;BME280;10809;49.476;11.016;2022-07-23T11:43:40;98399.84;;;22.84;56.41
21300;BME280;10809;49.476;11.016;2022-07-23T11:46:10;98392.25;;;22.88;56.59
21300;BME280;10809;49.476;11.016;2022-07-23T11:48:41;98395.34;;;22.93;56.92
21300;BME280;10809;49.476;11.016;2022-07-23T11:51:24;98398.09;;;23.01;56.70
21300;BME280;10809;49.476;11.016;2022-07-23T11:54:05;98398.16;;;23.09;56.57
21300;BME280;10809;49.476;11.016;2022-07-23T11:56:36;98388.38;;;23.16;57.20
21300;BME280;10809;49.476;11.016;2022-07-23T11:59:06;98381.16;;;23.25;57.43
21300;BME280;10809;49.476;11.016;2022-07-23T12:01:37;98387.28;;;23.35;57.06
21300;BME280;10809;49.476;11.016;2022-07-23T12:04:07;98390.56;;;23.46;57.42
21300;BME280;10809;49.476;11.016;2022-07-23T12:06:41;98382.13;;;23.57;57.05
21300;BME280;10809;49.476;11.016;2022-07-23T12:09:11;98382.69;;;23.69;57.20
21300;BME280;10809;49.476;11.016;2022-07-23T12:12:00;98371.41;;;23.81;56.48
21300;BME280;10809;49.476;11.016;2022-07-23T12:14:31;98368.34;;;23.92;56.37
21300;BME280;10809;49.476;11.016;2022-07-23T12:17:11;98365.34;;;24.03;55.93
21300;BME280;10809;49.476;11.016;2022-07-23T12:19:42;98362.31;;;24.14;56.64
21300;BME280;10809;49.476;11.016;2022-07-23T12:22:15;98353.88;;;24.25;55.99
21300;BME280;10809;49.476;11.016;2022-07-23T12:24:53;98354.19;;;24.38;56.27
21300;BME280;10809;49.476;11.016;2022-07-23T12:27:25;98349.94;;;24.52;56.29
21300;BME280;10809;49.476;11.016;2022-07-23T12:29:55;98357.38;;;24.66;55.93
21300;BME280;10809;49.476;11.016;2022-07-23T12:32:28;98342.28;;;24.79;56.17
21300;BME280;10809;49.476;11.016;2022-07-23T12:35:17;98342.41;;;24.94;55.29
21300;BME280;10809;49.476;11.016;2022-07-23T12:37:50;98337.94;;;25.09;55.15
21300;BME280;10809;49.476;11.016;2022-07-23T12:41:15;98327.41;;;25.22;54.54
21300;BME280;10809;49.476;11.016;2022-07-23T12:43:24;98334.13;;;25.34;53.84
21300;BME280;10809;49.476;11.016;2022-07-23T12:48:55;98331.84;;;25.54;53.13
21300;BME280;10809;49.476;11.016;2022-07-23T12:51:28;98326.19;;;25.63;52.73
21300;BME280;10809;49.476;11.016;2022-07-23T12:54:08;98327.66;;;25.74;52.52
21300;BME280;10809;49.476;11.016;2022-07-23T12:56:40;98329.63;;;25.80;52.38
21300;BME280;10809;49.476;11.016;2022-07-23T12:59:13;98333.50;;;25.85;51.85
21300;BME280;10809;49.476;11.016;2022-07-23T13:01:54;98325.16;;;25.87;52.22
21300;BME280;10809;49.476;11.016;2022-07-23T13:04:25;98324.16;;;25.88;51.58
21300;BME280;10809;49.476;11.016;2022-07-23T13:06:58;98334.66;;;25.91;51.49
21300;BME280;10809;49.476;11.016;2022-07-23T13:09:32;98327.84;;;25.95;51.82
21300;BME280;10809;49.476;11.016;2022-07-23T13:12:03;98328.97;;;26.00;51.18
21300;BME280;10809;49.476;11.016;2022-07-23T13:14:37;98323.88;;;26.05;51.24
21300;BME280;10809;49.476;11.016;2022-07-23T13:17:07;98322.28;;;26.11;51.48
21300;BME280;10809;49.476;11.016;2022-07-23T13:19:38;98316.31;;;26.15;51.02
21300;BME280;10809;49.476;11.016;2022-07-23T13:22:08;98320.56;;;26.18;50.90
21300;BME280;10809;49.476;11.016;2022-07-23T13:24:38;98330.38;;;26.19;50.98
21300;BME280;10809;49.476;11.016;2022-07-23T13:27:12;98319.69;;;26.17;50.67
21300;BME280;10809;49.476;11.016;2022-07-23T13:29:42;98319.88;;;26.16;50.35
21300;BME280;10809;49.476;11.016;2022-07-23T13:32:13;98321.75;;;26.15;50.42
21300;BME280;10809;49.476;11.016;2022-07-23T13:34:43;98323.63;;;26.15;50.49
21300;BME280;10809;49.476;11.016;2022-07-23T13:37:13;98321.94;;;26.14;50.55
21300;BME280;10809;49.476;11.016;2022-07-23T13:39:47;98318.19;;;26.15;50.48
21300;BME280;10809;49.476;11.016;2022-07-23T13:42:18;98319.69;;;26.17;50.75
21300;BME280;10809;49.476;11.016;2022-07-23T13:45:10;98310.16;;;26.21;50.91
21300;BME280;10809;49.476;11.016;2022-07-23T13:47:41;98311.13;;;26.28;50.90
21300;BME280;10809;49.476;11.016;2022-07-23T13:50:11;98302.06;;;26.36;49.77
21300;BME280;10809;49.476;11.016;2022-07-23T13:52:42;98311.13;;;26.43;49.84
21300;BME280;10809;49.476;11.016;2022-07-23T13:55:13;98298.72;;;26.49;49.52
21300;BME280;10809;49.476;11.016;2022-07-23T13:57:43;98303.59;;;26.53;49.36
21300;BME280;10809;49.476;11.016;2022-07-23T14:00:14;98298.59;;;26.57;49.07
21300;BME280;10809;49.476;11.016;2022-07-23T14:02:44;98299.28;;;26.59;48.79
21300;BME280;10809;49.476;11.016;2022-07-23T14:05:15;98308.28;;;26.59;48.83